createdAt,value
2022-09-16T00:01:58.120Z,79.22
2022-09-16T00:04:27.838Z,78.92
2022-09-16T00:06:55.507Z,78.80
2022-09-16T00:09:23.386Z,78.97
2022-09-16T00:11:51.570Z,79.01
2022-09-16T00:14:19.569Z,79.16
2022-09-16T00:16:47.700Z,79.40
2022-09-16T00:19:16.056Z,79.59
2022-09-16T00:21:44.107Z,79.57
2022-09-16T00:24:14.778Z,79.45
2022-09-16T00:26:45.378Z,79.51
2022-09-16T00:29:13.433Z,79.99
2022-09-16T00:31:41.619Z,79.67
2022-09-16T00:34:10.648Z,79.57
2022-09-16T00:36:38.623Z,78.98
2022-09-16T00:39:06.591Z,78.92
2022-09-16T00:41:36.366Z,78.68
2022-09-16T00:44:08.669Z,78.75
2022-09-16T00:46:48.994Z,78.31
2022-09-16T00:49:23.301Z,78.62
2022-09-16T00:51:54.976Z,78.39
2022-09-16T00:54:24.965Z,78.14
2022-09-16T00:56:56.632Z,78.28
2022-09-16T00:59:38.877Z,77.94
2022-09-16T01:02:14.395Z,77.87
2022-09-16T01:04:54.024Z,77.91
2022-09-16T01:07:32.877Z,77.51
2022-09-16T01:10:01.953Z,77.49
2022-09-16T01:12:34.181Z,77.74
2022-09-16T01:15:04.063Z,77.33
2022-09-16T01:17:36.040Z,77.16
2022-09-16T01:20:45.723Z,76.98
2022-09-16T01:23:29.079Z,76.43
2022-09-16T01:26:17.311Z,76.38
2022-09-16T01:29:17.393Z,76.45
2022-09-16T01:32:24.325Z,75.97
2022-09-16T01:34:55.396Z,76.17
2022-09-16T01:37:45.654Z,75.75
2022-09-16T01:40:38.419Z,75.90
2022-09-16T01:43:38.166Z,75.44
2022-09-16T01:46:08.820Z,75.11
2022-09-16T01:48:53.966Z,75.11
2022-09-16T01:51:37.735Z,75.03
2022-09-16T01:54:32.768Z,75.15
2022-09-16T01:57:19.314Z,75.04
2022-09-16T01:59:51.666Z,75.09
2022-09-16T02:02:27.616Z,74.99
2022-09-16T02:05:00.135Z,74.53
2022-09-16T12:13:19.398Z,64.66
2022-09-16T12:16:04.812Z,64.25
2022-09-16T12:18:45.372Z,64.32
2022-09-16T12:21:16.571Z,64.56
2022-09-16T12:23:51.996Z,64.74
2022-09-16T12:26:29.976Z,64.77
2022-09-16T12:29:12.039Z,65.00
2022-09-16T12:31:55.942Z,65.20
2022-09-16T12:34:42.261Z,65.54
2022-09-16T12:37:26.639Z,65.67
2022-09-16T12:39:54.833Z,65.69
2022-09-16T12:42:46.620Z,65.95
2022-09-16T12:46:03.065Z,66.49
2022-09-16T12:49:09.175Z,66.57
2022-09-16T12:51:57.992Z,66.92
2022-09-16T12:55:06.784Z,67.08
2022-09-16T12:57:39.345Z,67.40
2022-09-16T13:00:37.801Z,67.32
2022-09-16T13:03:18.680Z,67.48
2022-09-16T13:05:51.848Z,67.70
2022-09-16T13:08:32.340Z,67.80
2022-09-16T13:14:28.568Z,67.93
2022-09-16T13:17:00.999Z,68.26
2022-09-16T13:19:54.679Z,68.41
2022-09-16T13:22:29.670Z,68.73
2022-09-16T13:25:25.305Z,69.10
2022-09-16T13:28:25.932Z,69.43
2022-09-16T13:30:54.139Z,69.61
2022-09-16T13:33:29.205Z,69.95
2022-09-16T13:36:19.991Z,70.26
2022-09-16T13:38:51.120Z,69.86
2022-09-16T13:41:37.750Z,70.02
2022-09-16T13:44:34.611Z,70.35
2022-09-16T13:47:16.520Z,70.11
2022-09-16T13:50:14.785Z,70.24
2022-09-16T13:52:44.960Z,70.55
2022-09-16T13:55:24.606Z,70.64
2022-09-16T13:58:22.688Z,70.84
2022-09-16T14:01:10.532Z,70.55
2022-09-16T14:03:46.742Z,70.61
2022-09-16T14:06:58.083Z,70.54
2022-09-16T14:09:46.722Z,70.79
2022-09-16T14:12:35.587Z,70.57
2022-09-16T14:15:04.178Z,70.72
2022-09-16T14:17:48.956Z,70.63
2022-09-16T14:20:23.583Z,71.02
2022-09-16T14:23:03.084Z,71.05
2022-09-16T14:25:37.058Z,71.07
2022-09-16T14:28:27.608Z,71.52
2022-09-16T14:30:59.166Z,71.71
2022-09-16T14:33:36.678Z,72.07
2022-09-16T14:36:13.215Z,72.10
2022-09-16T14:38:55.197Z,72.39
2022-09-16T14:41:58.277Z,72.41
2022-09-16T14:44:29.476Z,72.72
2022-09-16T14:47:09.480Z,72.83
2022-09-16T14:49:41.252Z,72.98
2022-09-16T14:52:23.015Z,72.61
2022-09-16T14:54:52.489Z,72.68
2022-09-16T14:57:26.405Z,73.08
2022-09-16T14:59:59.710Z,72.94
2022-09-16T15:02:30.457Z,73.21
2022-09-16T15:05:20.884Z,73.45
2022-09-16T15:08:09.935Z,73.37
2022-09-16T15:10:55.229Z,73.53
2022-09-16T15:13:36.627Z,73.44
2022-09-16T15:16:14.013Z,73.65
2022-09-16T15:18:59.945Z,73.43
2022-09-16T15:21:38.010Z,73.53
2022-09-16T15:24:17.236Z,73.31
2022-09-16T15:26:48.355Z,73.42
2022-09-16T15:29:19.488Z,73.96
2022-09-16T15:31:48.171Z,73.73
2022-09-16T15:34:22.317Z,74.15
2022-09-16T15:36:55.771Z,74.13
2022-09-16T15:39:32.153Z,74.42
2022-09-16T15:42:24.674Z,74.44
2022-09-16T15:44:59.705Z,74.22
2022-09-16T15:47:35.387Z,74.46
2022-09-16T15:50:15.508Z,74.91
2022-09-16T15:53:04.375Z,74.59
2022-09-16T15:55:43.894Z,75.10
2022-09-16T15:58:24.801Z,74.78
2022-09-16T16:01:13.575Z,74.65
2022-09-16T16:03:55.422Z,74.50
2022-09-16T16:06:56.054Z,75.17
2022-09-16T16:09:30.071Z,74.67
2022-09-16T16:12:11.148Z,75.17
2022-09-16T16:14:40.998Z,75.15
2022-09-16T16:17:14.337Z,74.92
2022-09-16T16:19:46.102Z,74.75
2022-09-16T16:22:17.177Z,75.47
2022-09-16T16:24:46.293Z,75.10
2022-09-16T16:27:14.525Z,75.31
2022-09-16T16:29:42.496Z,75.23
2022-09-16T16:32:14.449Z,75.53
2022-09-16T16:34:45.690Z,74.72
2022-09-16T16:37:33.683Z,75.50
2022-09-16T16:40:07.274Z,75.19
2022-09-16T16:42:36.494Z,75.11
2022-09-16T16:45:05.120Z,75.26
2022-09-16T16:47:34.063Z,75.21
2022-09-16T16:50:02.276Z,75.47
2022-09-16T16:52:31.225Z,75.26
2022-09-16T16:54:59.464Z,74.82
2022-09-16T16:57:27.571Z,75.17
2022-09-16T16:59:55.620Z,74.99
2022-09-16T17:02:25.582Z,75.33
2022-09-16T17:04:53.655Z,75.38
2022-09-16T17:10:09.867Z,75.17
2022-09-16T17:12:39.240Z,74.94
2022-09-16T17:15:08.843Z,75.19
2022-09-16T17:17:37.083Z,75.04
2022-09-16T17:20:05.703Z,75.36
2022-09-16T17:22:33.738Z,75.58
2022-09-16T17:25:01.881Z,75.50
2022-09-16T17:27:31.561Z,75.46
2022-09-16T17:30:02.741Z,75.32
2022-09-16T17:32:33.111Z,75.36
2022-09-16T17:35:01.033Z,75.50
2022-09-16T17:37:31.523Z,75.25
2022-09-16T17:40:01.031Z,75.01
2022-09-16T17:42:29.000Z,75.43
2022-09-16T17:44:57.057Z,75.55
2022-09-16T17:47:30.004Z,75.24
2022-09-16T17:50:00.065Z,75.98
2022-09-16T17:52:28.184Z,75.55
2022-09-16T17:54:57.146Z,75.55
2022-09-16T17:57:29.989Z,76.08
2022-09-16T18:00:21.074Z,75.82
2022-09-16T18:02:49.129Z,75.75
2022-09-16T18:05:17.588Z,76.12
2022-09-16T18:07:48.803Z,76.19
2022-09-16T18:10:17.096Z,76.21
2022-09-16T18:12:45.018Z,76.60
2022-09-16T18:15:13.901Z,76.57
2022-09-16T18:18:00.601Z,76.48
2022-09-16T18:20:48.439Z,76.47
2022-09-16T18:23:16.389Z,76.62
2022-09-16T18:25:44.317Z,76.30
2022-09-16T18:28:12.540Z,76.49
2022-09-16T18:30:40.740Z,76.56
2022-09-16T18:33:09.845Z,76.45
2022-09-16T18:35:39.794Z,76.35
2022-09-16T18:38:08.302Z,76.26
2022-09-16T18:40:39.616Z,76.59
2022-09-16T18:43:08.051Z,76.63
2022-09-16T18:45:36.027Z,76.68
2022-09-16T18:48:04.402Z,76.69
2022-09-16T18:50:35.365Z,76.76
2022-09-16T18:53:03.650Z,76.99
2022-09-16T18:55:31.694Z,76.56
2022-09-16T18:58:00.655Z,77.08
2022-09-16T19:00:28.694Z,76.96
2022-09-16T19:02:56.649Z,76.82
2022-09-16T19:05:26.325Z,77.49
2022-09-16T19:07:54.403Z,76.94
2022-09-16T19:10:22.457Z,76.93
2022-09-16T19:12:50.594Z,76.48
2022-09-16T19:15:18.555Z,77.04
2022-09-16T19:17:46.629Z,77.47
2022-09-16T19:20:14.887Z,77.19
2022-09-16T19:22:46.429Z,77.57
2022-09-16T19:25:14.602Z,77.26
2022-09-16T19:27:42.778Z,77.12
2022-09-16T19:30:11.138Z,77.31
2022-09-16T19:32:40.023Z,77.43
2022-09-16T19:35:09.910Z,77.26
2022-09-16T19:37:37.526Z,77.09
2022-09-16T19:40:05.722Z,77.34
2022-09-16T19:42:34.023Z,77.10
2022-09-16T19:45:02.005Z,77.36
2022-09-16T19:47:31.584Z,76.91
2022-09-16T19:50:02.742Z,76.72
2022-09-16T19:52:31.447Z,77.37
2022-09-16T19:54:59.365Z,77.02
2022-09-16T19:57:29.892Z,76.72
2022-09-16T19:59:58.145Z,77.09
2022-09-16T20:02:26.154Z,77.19
2022-09-16T20:04:55.294Z,76.93
2022-09-16T20:07:23.389Z,76.98
2022-09-16T20:09:51.333Z,76.98
2022-09-16T20:12:21.106Z,76.93
2022-09-16T20:14:48.790Z,76.94
2022-09-16T20:17:16.728Z,77.29
2022-09-16T20:19:45.256Z,77.45
2022-09-16T20:22:13.311Z,77.50
2022-09-16T20:24:42.566Z,77.67
2022-09-16T20:27:11.683Z,77.84
2022-09-16T20:29:39.633Z,77.63
2022-09-16T20:32:07.618Z,77.74
2022-09-16T20:34:35.765Z,77.79
2022-09-16T20:37:03.702Z,77.77
2022-09-16T20:39:31.676Z,77.40
2022-09-16T20:42:00.503Z,77.73
2022-09-16T20:44:28.459Z,77.51
2022-09-16T20:46:56.380Z,77.62
2022-09-16T20:49:26.417Z,77.83
2022-09-16T20:51:54.387Z,77.70
2022-09-16T20:54:22.356Z,77.38
2022-09-16T20:56:50.519Z,77.54
2022-09-16T20:59:20.706Z,77.86
2022-09-16T21:01:49.810Z,77.38
2022-09-16T21:04:22.026Z,77.85
2022-09-16T21:06:50.180Z,77.64
2022-09-16T21:09:19.635Z,77.28
2022-09-16T21:11:49.903Z,77.41
2022-09-16T21:14:18.675Z,77.68
2022-09-16T21:16:47.497Z,77.61
2022-09-16T21:19:15.969Z,77.58
2022-09-16T21:21:46.452Z,77.76
2022-09-16T21:24:14.965Z,77.88
2022-09-16T21:26:45.694Z,77.69
2022-09-16T21:29:21.599Z,78.07
2022-09-16T21:31:50.180Z,77.84
2022-09-16T21:34:21.956Z,77.78
2022-09-16T21:36:51.239Z,77.73
2022-09-16T21:39:21.425Z,77.79
2022-09-16T21:41:50.753Z,77.54
2022-09-16T21:44:19.023Z,77.65
2022-09-16T21:46:47.689Z,77.79
2022-09-16T21:49:26.243Z,77.87
2022-09-16T21:51:56.243Z,77.66
2022-09-16T21:54:25.700Z,77.95
2022-09-16T21:56:54.775Z,78.21
2022-09-16T21:59:23.123Z,78.00
2022-09-16T22:01:52.412Z,77.87
2022-09-16T22:04:23.644Z,77.70
2022-09-16T22:06:55.372Z,78.11
2022-09-16T22:09:24.628Z,78.23
2022-09-16T22:11:53.426Z,78.26
2022-09-16T22:14:21.398Z,78.30
2022-09-16T22:16:51.013Z,78.44
2022-09-16T22:19:20.195Z,78.55
2022-09-16T22:21:50.389Z,78.80
2022-09-16T22:24:23.913Z,78.27
2022-09-16T22:26:52.615Z,78.73
2022-09-16T22:29:21.340Z,78.75
2022-09-16T22:31:49.821Z,78.54
2022-09-16T22:34:18.093Z,78.36
2022-09-16T22:36:46.090Z,78.61
2022-09-16T22:39:17.389Z,78.93
2022-09-16T22:41:45.332Z,78.90
2022-09-16T22:44:14.750Z,78.99
2022-09-16T22:46:50.012Z,79.20
2022-09-16T22:49:18.127Z,78.83
2022-09-16T22:51:46.144Z,78.64
2022-09-16T22:54:15.009Z,79.33
2022-09-16T22:56:44.479Z,78.59
2022-09-16T22:59:19.550Z,79.35
2022-09-16T23:01:48.400Z,78.95
2022-09-16T23:04:17.028Z,79.30
2022-09-16T23:06:45.157Z,79.12
2022-09-16T23:09:15.488Z,78.99
2022-09-16T23:11:44.370Z,79.40
2022-09-16T23:14:28.810Z,79.30
2022-09-16T23:16:56.738Z,79.69
2022-09-16T23:19:24.695Z,79.67
2022-09-16T23:21:52.848Z,79.23
2022-09-16T23:24:22.751Z,79.15
2022-09-16T23:26:50.821Z,79.58
2022-09-16T23:29:26.012Z,79.00
2022-09-16T23:31:54.104Z,79.69
2022-09-16T23:34:22.853Z,79.77
2022-09-16T23:36:53.430Z,79.62
2022-09-16T23:39:21.493Z,79.86
2022-09-16T23:41:51.036Z,79.58
2022-09-16T23:44:20.792Z,80.06
2022-09-16T23:46:49.002Z,79.93
2022-09-16T23:49:20.961Z,79.85
2022-09-16T23:51:49.813Z,79.67
2022-09-16T23:54:18.143Z,79.92
2022-09-16T23:56:46.186Z,79.76
2022-09-16T23:59:15.175Z,79.54
